sensor_id;sensor_type;location;lat;lon;timestamp;pressure;altitude;pressure_sealevel;temperature;humidity
43147;BME280;28752;48.266;7.402;2024-03-25T00:02:24;98882.81;;;7.27;74.88
43147;BME280;28752;48.266;7.402;2024-03-25T00:04:50;98891.16;;;7.32;75.14
43147;BME280;28752;48.266;7.402;2024-03-25T00:07:18;98883.38;;;7.40;74.59
43147;BME280;28752;48.266;7.402;2024-03-25T00:09:44;98897.00;;;7.45;74.58
43147;BME280;28752;48.266;7.402;2024-03-25T00:12:10;98879.91;;;7.30;74.43
43147;BME280;28752;48.266;7.402;2024-03-25T00:14:38;98886.06;;;6.70;75.75
43147;BME280;28752;48.266;7.402;2024-03-25T00:17:04;98893.06;;;7.10;75.28
43147;BME280;28752;48.266;7.402;2024-03-25T00:19:31;98896.69;;;7.19;74.79
43147;BME280;28752;48.266;7.402;2024-03-25T00:21:57;98900.00;;;7.02;75.77
43147;BME280;28752;48.266;7.402;2024-03-25T00:24:23;98898.09;;;7.23;75.08
43147;BME280;28752;48.266;7.402;2024-03-25T00:26:52;98895.56;;;7.32;74.88
43147;BME280;28752;48.266;7.402;2024-03-25T00:29:17;98892.94;;;7.32;74.19
43147;BME280;28752;48.266;7.402;2024-03-25T00:31:43;98890.88;;;7.35;73.75
43147;BME280;28752;48.266;7.402;2024-03-25T00:34:09;98876.75;;;7.26;73.71
43147;BME280;28752;48.266;7.402;2024-03-25T00:36:35;98874.25;;;7.25;73.80
43147;BME280;28752;48.266;7.402;2024-03-25T00:39:01;98885.03;;;7.32;73.79
43147;BME280;28752;48.266;7.402;2024-03-25T00:41:41;98875.78;;;7.27;73.58
43147;BME280;28752;48.266;7.402;2024-03-25T00:44:07;98880.75;;;7.21;73.71
43147;BME280;28752;48.266;7.402;2024-03-25T00:46:33;98869.75;;;6.67;75.01
43147;BME280;28752;48.266;7.402;2024-03-25T00:48:59;98883.53;;;6.18;77.10
43147;BME280;28752;48.266;7.402;2024-03-25T00:51:25;98880.97;;;6.79;76.06
43147;BME280;28752;48.266;7.402;2024-03-25T00:53:57;98872.41;;;7.06;75.23
43147;BME280;28752;48.266;7.402;2024-03-25T00:56:23;98870.66;;;7.26;74.44
43147;BME280;28752;48.266;7.402;2024-03-25T00:58:49;98857.91;;;7.21;73.91
43147;BME280;28752;48.266;7.402;2024-03-25T01:01:16;98857.47;;;7.16;74.60
43147;BME280;28752;48.266;7.402;2024-03-25T01:03:42;98856.09;;;7.22;74.24
43147;BME280;28752;48.266;7.402;2024-03-25T01:06:08;98863.72;;;7.15;74.15
43147;BME280;28752;48.266;7.402;2024-03-25T01:08:34;98863.84;;;7.14;74.25
43147;BME280;28752;48.266;7.402;2024-03-25T01:10:59;98859.41;;;7.14;74.12
43147;BME280;28752;48.266;7.402;2024-03-25T01:13:25;98855.13;;;7.23;73.94
43147;BME280;28752;48.266;7.402;2024-03-25T01:15:51;98857.34;;;7.27;73.41
43147;BME280;28752;48.266;7.402;2024-03-25T01:18:17;98859.41;;;7.24;73.71
43147;BME280;28752;48.266;7.402;2024-03-25T01:20:42;98845.28;;;7.05;74.17
43147;BME280;28752;48.266;7.402;2024-03-25T01:23:08;98850.81;;;7.12;74.05
43147;BME280;28752;48.266;7.402;2024-03-25T01:25:34;98845.84;;;7.19;74.41
43147;BME280;28752;48.266;7.402;2024-03-25T01:28:00;98854.13;;;7.24;73.89
43147;BME280;28752;48.266;7.402;2024-03-25T01:30:25;98845.84;;;7.19;73.90
43147;BME280;28752;48.266;7.402;2024-03-25T01:32:53;98841.53;;;7.18;73.76
43147;BME280;28752;48.266;7.402;2024-03-25T01:35:22;98844.88;;;7.20;73.84
43147;BME280;28752;48.266;7.402;2024-03-25T01:37:47;98842.38;;;7.18;73.81
43147;BME280;28752;48.266;7.402;2024-03-25T01:40:14;98836.53;;;7.15;74.19
43147;BME280;28752;48.266;7.402;2024-03-25T01:42:40;98816.19;;;6.97;74.06
43147;BME280;28752;48.266;7.402;2024-03-25T01:45:07;98827.81;;;7.14;74.01
43147;BME280;28752;48.266;7.402;2024-03-25T01:47:38;98826.97;;;7.04;74.68
43147;BME280;28752;48.266;7.402;2024-03-25T01:50:05;98824.78;;;7.19;74.10
43147;BME280;28752;48.266;7.402;2024-03-25T01:52:32;98816.44;;;7.04;73.57
43147;BME280;28752;48.266;7.402;2024-03-25T01:54:58;98813.13;;;6.92;74.27
43147;BME280;28752;48.266;7.402;2024-03-25T01:57:24;98812.84;;;7.15;74.15
43147;BME280;28752;48.266;7.402;2024-03-25T01:59:52;98818.97;;;7.15;74.14
43147;BME280;28752;48.266;7.402;2024-03-25T02:02:18;98811.44;;;7.10;74.10
43147;BME280;28752;48.266;7.402;2024-03-25T02:04:45;98810.09;;;7.06;74.48
43147;BME280;28752;48.266;7.402;2024-03-25T02:07:11;98815.88;;;6.90;75.12
43147;BME280;28752;48.266;7.402;2024-03-25T02:09:38;98813.50;;;6.58;75.55
43147;BME280;28752;48.266;7.402;2024-03-25T02:12:05;98816.41;;;6.65;75.65
43147;BME280;28752;48.266;7.402;2024-03-25T02:14:32;98807.13;;;6.80;75.13
43147;BME280;28752;48.266;7.402;2024-03-25T02:16:58;98808.69;;;7.02;74.46
43147;BME280;28752;48.266;7.402;2024-03-25T02:19:27;98802.31;;;7.05;74.33
43147;BME280;28752;48.266;7.402;2024-03-25T02:21:53;98807.59;;;7.05;74.73
43147;BME280;28752;48.266;7.402;2024-03-25T02:24:21;98800.78;;;7.12;74.15
43147;BME280;28752;48.266;7.402;2024-03-25T02:26:49;98807.19;;;7.09;74.26
43147;BME280;28752;48.266;7.402;2024-03-25T02:29:18;98808.28;;;6.97;74.12
43147;BME280;28752;48.266;7.402;2024-03-25T02:31:44;98801.91;;;6.90;74.81
43147;BME280;28752;48.266;7.402;2024-03-25T02:34:10;98807.41;;;6.77;75.45
43147;BME280;28752;48.266;7.402;2024-03-25T02:36:36;98808.44;;;6.96;74.89
43147;BME280;28752;48.266;7.402;2024-03-25T02:39:03;98805.94;;;6.94;74.53
43147;BME280;28752;48.266;7.402;2024-03-25T02:41:38;98800.50;;;6.86;74.38
43147;BME280;28752;48.266;7.402;2024-03-25T02:44:04;98807.00;;;6.72;74.96
43147;BME280;28752;48.266;7.402;2024-03-25T02:46:30;98803.56;;;6.81;74.96
43147;BME280;28752;48.266;7.402;2024-03-25T02:48:56;98795.66;;;6.81;75.00
43147;BME280;28752;48.266;7.402;2024-03-25T02:51:22;98795.09;;;6.68;75.22
43147;BME280;28752;48.266;7.402;2024-03-25T02:53:48;98792.34;;;7.08;74.06
43147;BME280;28752;48.266;7.402;2024-03-25T02:56:14;98791.78;;;6.66;74.96
43147;BME280;28752;48.266;7.402;2024-03-25T02:58:40;98798.66;;;6.57;75.44
43147;BME280;28752;48.266;7.402;2024-03-25T03:01:06;98792.72;;;6.55;75.23
43147;BME280;28752;48.266;7.402;2024-03-25T03:03:38;98784.00;;;6.54;75.45
43147;BME280;28752;48.266;7.402;2024-03-25T03:06:05;98782.91;;;6.76;74.67
43147;BME280;28752;48.266;7.402;2024-03-25T03:08:31;98779.44;;;6.66;75.26
43147;BME280;28752;48.266;7.402;2024-03-25T03:10:57;98774.41;;;6.44;76.09
43147;BME280;28752;48.266;7.402;2024-03-25T03:13:23;98780.25;;;6.47;76.27
43147;BME280;28752;48.266;7.402;2024-03-25T03:15:49;98777.91;;;6.44;76.56
43147;BME280;28752;48.266;7.402;2024-03-25T03:18:15;98769.56;;;6.39;76.81
43147;BME280;28752;48.266;7.402;2024-03-25T03:20:41;98768.06;;;6.46;76.53
43147;BME280;28752;48.266;7.402;2024-03-25T03:23:07;98772.91;;;6.41;76.57
43147;BME280;28752;48.266;7.402;2024-03-25T03:25:33;98760.72;;;6.40;76.40
43147;BME280;28752;48.266;7.402;2024-03-25T03:27:59;98774.25;;;6.26;76.85
43147;BME280;28752;48.266;7.402;2024-03-25T03:30:24;98772.31;;;6.28;76.79
43147;BME280;28752;48.266;7.402;2024-03-25T03:32:50;98772.91;;;6.41;76.34
43147;BME280;28752;48.266;7.402;2024-03-25T03:35:16;98765.84;;;6.42;76.17
43147;BME280;28752;48.266;7.402;2024-03-25T03:37:45;98765.97;;;6.40;75.92
43147;BME280;28752;48.266;7.402;2024-03-25T03:40:11;98768.59;;;6.30;76.28
43147;BME280;28752;48.266;7.402;2024-03-25T03:42:37;98767.88;;;6.28;76.42
43147;BME280;28752;48.266;7.402;2024-03-25T03:45:04;98756.13;;;6.32;76.14
43147;BME280;28752;48.266;7.402;2024-03-25T03:47:31;98757.56;;;6.95;73.94
43147;BME280;28752;48.266;7.402;2024-03-25T03:49:56;98753.41;;;7.02;73.08
43147;BME280;28752;48.266;7.402;2024-03-25T03:52:23;98754.91;;;6.46;75.03
43147;BME280;28752;48.266;7.402;2024-03-25T03:54:49;98756.25;;;6.21;75.66
43147;BME280;28752;48.266;7.402;2024-03-25T03:57:14;98755.84;;;6.26;75.53
43147;BME280;28752;48.266;7.402;2024-03-25T03:59:40;98759.28;;;5.55;77.58
43147;BME280;28752;48.266;7.402;2024-03-25T04:02:07;98754.28;;;5.82;77.40
43147;BME280;28752;48.266;7.402;2024-03-25T04:04:35;98757.72;;;6.04;76.83
43147;BME280;28752;48.266;7.402;2024-03-25T04:07:02;98759.56;;;6.23;76.20
43147;BME280;28752;48.266;7.402;2024-03-25T04:09:27;98760.84;;;6.29;75.65
43147;BME280;28752;48.266;7.402;2024-03-25T04:11:56;98762.00;;;6.05;75.82
43147;BME280;28752;48.266;7.402;2024-03-25T04:14:21;98758.25;;;5.98;75.94
43147;BME280;28752;48.266;7.402;2024-03-25T04:16:47;98744.66;;;5.93;76.10
43147;BME280;28752;48.266;7.402;2024-03-25T04:19:13;98742.28;;;5.90;75.94
43147;BME280;28752;48.266;7.402;2024-03-25T04:21:40;98737.72;;;5.92;75.86
43147;BME280;28752;48.266;7.402;2024-03-25T04:24:06;98744.28;;;5.97;75.79
43147;BME280;28752;48.266;7.402;2024-03-25T04:26:32;98738.63;;;6.02;75.62
43147;BME280;28752;48.266;7.402;2024-03-25T04:28:59;98740.97;;;6.05;75.44
43147;BME280;28752;48.266;7.402;2024-03-25T04:31:25;98724.94;;;5.98;75.10
43147;BME280;28752;48.266;7.402;2024-03-25T04:33:51;98731.84;;;5.78;74.69
43147;BME280;28752;48.266;7.402;2024-03-25T04:36:17;98730.97;;;5.89;74.90
43147;BME280;28752;48.266;7.402;2024-03-25T04:38:43;98723.75;;;5.91;74.74
43147;BME280;28752;48.266;7.402;2024-03-25T04:41:09;98729.84;;;5.92;74.63
43147;BME280;28752;48.266;7.402;2024-03-25T04:43:36;98714.31;;;5.79;74.73
43147;BME280;28752;48.266;7.402;2024-03-25T04:46:02;98702.38;;;5.65;74.80
43147;BME280;28752;48.266;7.402;2024-03-25T04:48:28;98724.97;;;5.77;74.65
43147;BME280;28752;48.266;7.402;2024-03-25T04:51:04;98728.16;;;5.81;74.31
43147;BME280;28752;48.266;7.402;2024-03-25T04:53:31;98715.41;;;5.76;74.77
43147;BME280;28752;48.266;7.402;2024-03-25T04:56:06;98719.00;;;5.75;74.75
43147;BME280;28752;48.266;7.402;2024-03-25T04:59:02;98730.34;;;5.76;74.83
43147;BME280;28752;48.266;7.402;2024-03-25T05:01:34;98739.72;;;5.68;75.05
43147;BME280;28752;48.266;7.402;2024-03-25T05:04:02;98734.22;;;5.50;75.13
43147;BME280;28752;48.266;7.402;2024-03-25T05:06:31;98742.19;;;5.60;74.71
43147;BME280;28752;48.266;7.402;2024-03-25T05:08:57;98737.38;;;5.75;73.86
43147;BME280;28752;48.266;7.402;2024-03-25T05:11:23;98734.84;;;5.64;74.11
43147;BME280;28752;48.266;7.402;2024-03-25T05:13:49;98745.44;;;5.52;74.41
43147;BME280;28752;48.266;7.402;2024-03-25T05:16:15;98739.63;;;5.49;74.64
43147;BME280;28752;48.266;7.402;2024-03-25T05:18:42;98736.44;;;5.45;75.13
43147;BME280;28752;48.266;7.402;2024-03-25T05:21:14;98734.84;;;5.33;75.35
43147;BME280;28752;48.266;7.402;2024-03-25T05:23:43;98734.84;;;5.33;75.17
43147;BME280;28752;48.266;7.402;2024-03-25T05:26:09;98740.09;;;5.33;75.53
43147;BME280;28752;48.266;7.402;2024-03-25T05:28:36;98748.94;;;5.32;75.45
43147;BME280;28752;48.266;7.402;2024-03-25T05:31:08;98756.59;;;5.45;75.17
43147;BME280;28752;48.266;7.402;2024-03-25T05:33:35;98752.91;;;5.57;75.09
43147;BME280;28752;48.266;7.402;2024-03-25T05:36:11;98766.41;;;5.74;74.64
43147;BME280;28752;48.266;7.402;2024-03-25T05:38:37;98764.31;;;5.67;74.69
43147;BME280;28752;48.266;7.402;2024-03-25T05:41:04;98765.41;;;5.65;74.91
43147;BME280;28752;48.266;7.402;2024-03-25T05:43:34;98759.78;;;5.69;75.28
43147;BME280;28752;48.266;7.402;2024-03-25T05:46:01;98749.44;;;5.87;75.46
43147;BME280;28752;48.266;7.402;2024-03-25T05:48:27;98754.00;;;6.07;75.15
43147;BME280;28752;48.266;7.402;2024-03-25T05:51:06;98755.69;;;6.17;75.02
43147;BME280;28752;48.266;7.402;2024-03-25T05:53:57;98759.28;;;5.85;75.70
43147;BME280;28752;48.266;7.402;2024-03-25T05:56:22;98760.41;;;5.93;75.75
43147;BME280;28752;48.266;7.402;2024-03-25T06:25:44;98735.34;;;7.84;71.42
43147;BME280;28752;48.266;7.402;2024-03-25T06:28:09;98728.72;;;8.26;70.40
43147;BME280;28752;48.266;7.402;2024-03-25T06:30:34;98726.63;;;8.75;69.26
43147;BME280;28752;48.266;7.402;2024-03-25T06:33:18;98716.84;;;9.12;68.88
43147;BME280;28752;48.266;7.402;2024-03-25T06:36:02;98709.25;;;9.61;67.36
43147;BME280;28752;48.266;7.402;2024-03-25T06:38:28;98703.44;;;9.92;66.13
43147;BME280;28752;48.266;7.402;2024-03-25T06:40:54;98692.28;;;10.23;65.39
43147;BME280;28752;48.266;7.402;2024-03-25T06:43:20;98703.44;;;10.51;64.80
43147;BME280;28752;48.266;7.402;2024-03-25T06:45:45;98699.66;;;10.62;64.15
43147;BME280;28752;48.266;7.402;2024-03-25T06:48:10;98688.75;;;10.65;64.59
43147;BME280;28752;48.266;7.402;2024-03-25T06:50:36;98692.88;;;10.76;63.61
43147;BME280;28752;48.266;7.402;2024-03-25T06:53:02;98693.38;;;10.79;64.32
43147;BME280;28752;48.266;7.402;2024-03-25T06:55:27;98688.72;;;11.23;62.40
43147;BME280;28752;48.266;7.402;2024-03-25T06:57:53;98701.09;;;11.38;62.54
43147;BME280;28752;48.266;7.402;2024-03-25T07:00:19;98676.50;;;10.97;64.74
43147;BME280;28752;48.266;7.402;2024-03-25T07:02:47;98690.22;;;10.51;66.12
43147;BME280;28752;48.266;7.402;2024-03-25T07:05:12;98690.91;;;10.86;64.13
43147;BME280;28752;48.266;7.402;2024-03-25T07:07:39;98691.88;;;11.18;63.62
43147;BME280;28752;48.266;7.402;2024-03-25T07:10:04;98690.72;;;11.20;64.89
43147;BME280;28752;48.266;7.402;2024-03-25T07:12:30;98689.94;;;11.68;64.12
43147;BME280;28752;48.266;7.402;2024-03-25T07:14:55;98678.47;;;11.03;63.27
43147;BME280;28752;48.266;7.402;2024-03-25T07:17:20;98683.91;;;11.18;65.30
43147;BME280;28752;48.266;7.402;2024-03-25T07:19:49;98679.91;;;11.30;65.86
43147;BME280;28752;48.266;7.402;2024-03-25T07:22:14;98671.19;;;10.97;62.61
43147;BME280;28752;48.266;7.402;2024-03-25T07:24:58;98672.16;;;10.38;63.13
43147;BME280;28752;48.266;7.402;2024-03-25T07:27:33;98668.00;;;11.34;63.71
43147;BME280;28752;48.266;7.402;2024-03-25T07:30:11;98672.00;;;11.78;62.76
43147;BME280;28752;48.266;7.402;2024-03-25T07:43:02;98640.88;;;12.12;62.41
43147;BME280;28752;48.266;7.402;2024-03-25T07:45:45;98639.13;;;12.19;60.96
43147;BME280;28752;48.266;7.402;2024-03-25T08:09:02;98671.16;;;10.47;64.22
43147;BME280;28752;48.266;7.402;2024-03-25T08:15:14;98657.44;;;11.01;62.74
43147;BME280;28752;48.266;7.402;2024-03-25T08:18:11;98662.81;;;11.49;63.41
43147;BME280;28752;48.266;7.402;2024-03-25T08:41:21;98628.84;;;12.24;59.47
43147;BME280;28752;48.266;7.402;2024-03-25T08:43:46;98622.38;;;11.55;59.77
43147;BME280;28752;48.266;7.402;2024-03-25T08:46:11;98607.91;;;11.98;63.04
43147;BME280;28752;48.266;7.402;2024-03-25T08:48:37;98611.53;;;12.05;61.21
43147;BME280;28752;48.266;7.402;2024-03-25T08:51:02;98601.66;;;12.45;59.64
43147;BME280;28752;48.266;7.402;2024-03-25T08:53:29;98606.09;;;12.44;59.72
43147;BME280;28752;48.266;7.402;2024-03-25T08:55:54;98606.41;;;12.26;57.28
43147;BME280;28752;48.266;7.402;2024-03-25T08:58:20;98600.13;;;12.66;60.11
43147;BME280;28752;48.266;7.402;2024-03-25T09:00:45;98592.66;;;12.00;57.99
43147;BME280;28752;48.266;7.402;2024-03-25T09:03:11;98599.13;;;12.29;57.09
43147;BME280;28752;48.266;7.402;2024-03-25T09:05:36;98598.47;;;12.65;57.78
43147;BME280;28752;48.266;7.402;2024-03-25T09:08:05;98586.00;;;12.50;56.12
43147;BME280;28752;48.266;7.402;2024-03-25T09:10:43;98586.44;;;11.84;55.65
43147;BME280;28752;48.266;7.402;2024-03-25T09:17:13;98574.38;;;12.51;56.87
43147;BME280;28752;48.266;7.402;2024-03-25T09:54:53;98540.19;;;12.86;49.95
43147;BME280;28752;48.266;7.402;2024-03-25T09:57:12;98529.78;;;13.51;54.16
43147;BME280;28752;48.266;7.402;2024-03-25T09:59:40;98522.47;;;13.23;50.33
43147;BME280;28752;48.266;7.402;2024-03-25T10:02:08;98527.25;;;13.13;50.93
43147;BME280;28752;48.266;7.402;2024-03-25T10:04:40;98499.97;;;12.89;52.94
43147;BME280;28752;48.266;7.402;2024-03-25T10:07:09;98488.19;;;12.24;51.89
43147;BME280;28752;48.266;7.402;2024-03-25T10:09:34;98508.81;;;12.52;52.89
43147;BME280;28752;48.266;7.402;2024-03-25T10:12:00;98513.81;;;12.85;53.35
43147;BME280;28752;48.266;7.402;2024-03-25T10:14:25;98501.41;;;13.22;52.73
43147;BME280;28752;48.266;7.402;2024-03-25T10:16:50;98487.94;;;13.38;51.22
43147;BME280;28752;48.266;7.402;2024-03-25T10:19:16;98486.38;;;13.65;54.74
43147;BME280;28752;48.266;7.402;2024-03-25T10:21:41;98491.00;;;13.78;56.31
43147;BME280;28752;48.266;7.402;2024-03-25T10:24:06;98481.69;;;13.89;55.96
43147;BME280;28752;48.266;7.402;2024-03-25T10:26:32;98475.50;;;13.82;52.23
43147;BME280;28752;48.266;7.402;2024-03-25T10:29:06;98469.72;;;14.21;51.92
43147;BME280;28752;48.266;7.402;2024-03-25T10:31:33;98455.84;;;14.04;50.42
43147;BME280;28752;48.266;7.402;2024-03-25T10:33:58;98447.44;;;13.79;49.98
43147;BME280;28752;48.266;7.402;2024-03-25T10:36:24;98441.34;;;13.85;47.69
43147;BME280;28752;48.266;7.402;2024-03-25T10:38:57;98440.66;;;13.77;46.90
43147;BME280;28752;48.266;7.402;2024-03-25T10:41:25;98439.78;;;13.91;44.74
43147;BME280;28752;48.266;7.402;2024-03-25T10:43:54;98435.84;;;13.87;42.42
43147;BME280;28752;48.266;7.402;2024-03-25T10:46:20;98436.97;;;13.99;43.28
43147;BME280;28752;48.266;7.402;2024-03-25T10:49:01;98432.22;;;13.73;43.66
43147;BME280;28752;48.266;7.402;2024-03-25T10:51:29;98416.88;;;14.25;46.82
43147;BME280;28752;48.266;7.402;2024-03-25T10:53:57;98421.13;;;13.91;42.17
43147;BME280;28752;48.266;7.402;2024-03-25T10:56:23;98419.25;;;13.63;42.24
43147;BME280;28752;48.266;7.402;2024-03-25T10:58:49;98415.56;;;13.43;44.04
43147;BME280;28752;48.266;7.402;2024-03-25T11:01:17;98410.44;;;12.90;43.56
43147;BME280;28752;48.266;7.402;2024-03-25T11:03:43;98406.22;;;13.32;43.60
43147;BME280;28752;48.266;7.402;2024-03-25T11:06:08;98397.53;;;13.02;41.56
43147;BME280;28752;48.266;7.402;2024-03-25T11:08:34;98390.13;;;13.55;45.61
43147;BME280;28752;48.266;7.402;2024-03-25T11:10:59;98387.03;;;14.01;44.43
43147;BME280;28752;48.266;7.402;2024-03-25T11:13:26;98391.09;;;13.97;43.24
43147;BME280;28752;48.266;7.402;2024-03-25T11:15:52;98372.31;;;14.06;44.75
43147;BME280;28752;48.266;7.402;2024-03-25T11:18:22;98371.34;;;13.85;40.90
43147;BME280;28752;48.266;7.402;2024-03-25T11:21:01;98367.38;;;13.74;40.43
43147;BME280;28752;48.266;7.402;2024-03-25T11:23:26;98345.34;;;13.80;40.82
43147;BME280;28752;48.266;7.402;2024-03-25T11:25:55;98354.28;;;13.73;40.79
43147;BME280;28752;48.266;7.402;2024-03-25T11:28:27;98350.31;;;13.90;42.32
43147;BME280;28752;48.266;7.402;2024-03-25T11:30:53;98345.84;;;13.26;40.88
43147;BME280;28752;48.266;7.402;2024-03-25T11:33:18;98338.22;;;13.38;40.84
43147;BME280;28752;48.266;7.402;2024-03-25T11:35:47;98343.22;;;12.89;40.47
43147;BME280;28752;48.266;7.402;2024-03-25T11:38:14;98345.53;;;13.57;43.13
43147;BME280;28752;48.266;7.402;2024-03-25T11:40:43;98311.75;;;13.79;42.88
43147;BME280;28752;48.266;7.402;2024-03-25T11:43:08;98319.94;;;14.13;41.61
43147;BME280;28752;48.266;7.402;2024-03-25T11:45:34;98314.53;;;13.99;42.03
43147;BME280;28752;48.266;7.402;2024-03-25T11:47:59;98305.94;;;14.39;41.93
43147;BME280;28752;48.266;7.402;2024-03-25T11:50:25;98308.22;;;13.72;39.92
43147;BME280;28752;48.266;7.402;2024-03-25T11:52:50;98300.31;;;13.57;40.43
43147;BME280;28752;48.266;7.402;2024-03-25T11:55:18;98295.59;;;13.53;40.70
43147;BME280;28752;48.266;7.402;2024-03-25T11:57:44;98297.16;;;13.68;41.05
43147;BME280;28752;48.266;7.402;2024-03-25T12:00:10;98297.53;;;13.65;40.23
43147;BME280;28752;48.266;7.402;2024-03-25T12:02:36;98288.72;;;13.37;40.53
43147;BME280;28752;48.266;7.402;2024-03-25T12:05:01;98282.53;;;13.86;41.64
43147;BME280;28752;48.266;7.402;2024-03-25T12:07:27;98264.06;;;14.19;41.91
43147;BME280;28752;48.266;7.402;2024-03-25T12:09:52;98254.81;;;14.09;39.99
43147;BME280;28752;48.266;7.402;2024-03-25T12:12:36;98246.22;;;13.43;39.79
43147;BME280;28752;48.266;7.402;2024-03-25T12:15:05;98250.63;;;14.28;41.20
43147;BME280;28752;48.266;7.402;2024-03-25T12:17:33;98239.03;;;13.65;40.55
43147;BME280;28752;48.266;7.402;2024-03-25T12:20:08;98236.63;;;14.19;41.38
43147;BME280;28752;48.266;7.402;2024-03-25T12:22:35;98223.41;;;14.39;41.33
43147;BME280;28752;48.266;7.402;2024-03-25T12:25:04;98235.41;;;13.80;40.87
43147;BME280;28752;48.266;7.402;2024-03-25T12:27:32;98225.59;;;14.22;41.14
43147;BME280;28752;48.266;7.402;2024-03-25T12:29:58;98214.31;;;13.78;39.75
43147;BME280;28752;48.266;7.402;2024-03-25T12:32:31;98205.03;;;13.96;40.48
43147;BME280;28752;48.266;7.402;2024-03-25T12:34:57;98201.22;;;13.42;40.18
43147;BME280;28752;48.266;7.402;2024-03-25T12:37:23;98197.13;;;13.18;41.47
43147;BME280;28752;48.266;7.402;2024-03-25T12:39:48;98201.44;;;13.19;41.35
43147;BME280;28752;48.266;7.402;2024-03-25T12:42:17;98190.19;;;13.80;39.91
43147;BME280;28752;48.266;7.402;2024-03-25T12:55:26;98161.50;;;13.68;38.80
43147;BME280;28752;48.266;7.402;2024-03-25T13:25:35;98109.31;;;14.29;38.39
43147;BME280;28752;48.266;7.402;2024-03-25T13:55:33;98041.97;;;14.62;36.69
43147;BME280;28752;48.266;7.402;2024-03-25T13:58:40;98042.53;;;14.24;37.09
43147;BME280;28752;48.266;7.402;2024-03-25T14:05:07;98026.13;;;14.00;37.48
43147;BME280;28752;48.266;7.402;2024-03-25T14:11:06;98023.28;;;14.35;36.89
43147;BME280;28752;48.266;7.402;2024-03-25T14:45:04;97953.63;;;14.58;38.34
43147;BME280;28752;48.266;7.402;2024-03-25T14:57:54;97934.31;;;14.83;36.92
43147;BME280;28752;48.266;7.402;2024-03-25T15:00:19;97924.78;;;14.62;36.40
43147;BME280;28752;48.266;7.402;2024-03-25T15:02:45;97930.09;;;14.49;37.90
43147;BME280;28752;48.266;7.402;2024-03-25T15:05:11;97928.22;;;14.56;36.68
43147;BME280;28752;48.266;7.402;2024-03-25T15:07:37;97921.06;;;14.43;36.42
43147;BME280;28752;48.266;7.402;2024-03-25T15:10:02;97916.00;;;14.35;36.56
43147;BME280;28752;48.266;7.402;2024-03-25T15:12:29;97911.03;;;14.45;36.59
43147;BME280;28752;48.266;7.402;2024-03-25T15:14:54;97901.56;;;14.76;36.40
43147;BME280;28752;48.266;7.402;2024-03-25T15:17:19;97900.44;;;15.04;37.58
43147;BME280;28752;48.266;7.402;2024-03-25T15:19:45;97901.38;;;14.78;36.49
43147;BME280;28752;48.266;7.402;2024-03-25T15:22:10;97895.22;;;14.70;36.88
43147;BME280;28752;48.266;7.402;2024-03-25T15:24:36;97870.47;;;14.50;37.26
43147;BME280;28752;48.266;7.402;2024-03-25T15:27:01;97893.22;;;14.46;36.96
43147;BME280;28752;48.266;7.402;2024-03-25T15:29:27;97892.16;;;14.60;37.23
43147;BME280;28752;48.266;7.402;2024-03-25T15:31:52;97883.97;;;14.68;36.61
43147;BME280;28752;48.266;7.402;2024-03-25T15:34:19;97872.66;;;14.80;37.41
43147;BME280;28752;48.266;7.402;2024-03-25T15:36:44;97864.91;;;14.51;37.27
43147;BME280;28752;48.266;7.402;2024-03-25T15:39:09;97872.69;;;14.73;36.83
43147;BME280;28752;48.266;7.402;2024-03-25T15:41:35;97871.63;;;14.81;36.91
43147;BME280;28752;48.266;7.402;2024-03-25T15:44:00;97863.00;;;14.79;36.85
43147;BME280;28752;48.266;7.402;2024-03-25T15:46:25;97857.97;;;14.64;36.53
43147;BME280;28752;48.266;7.402;2024-03-25T15:48:51;97847.31;;;14.50;36.72
43147;BME280;28752;48.266;7.402;2024-03-25T15:51:16;97846.69;;;14.55;36.97
43147;BME280;28752;48.266;7.402;2024-03-25T15:53:42;97842.16;;;14.69;36.69
43147;BME280;28752;48.266;7.402;2024-03-25T15:56:08;97837.59;;;14.83;37.06
43147;BME280;28752;48.266;7.402;2024-03-25T16:16:12;97800.59;;;14.61;36.80
43147;BME280;28752;48.266;7.402;2024-03-25T16:19:34;97794.53;;;14.92;36.94
43147;BME280;28752;48.266;7.402;2024-03-25T16:22:26;97793.00;;;15.03;36.82
43147;BME280;28752;48.266;7.402;2024-03-25T16:25:02;97795.03;;;15.08;36.52
43147;BME280;28752;48.266;7.402;2024-03-25T16:27:35;97785.09;;;14.90;37.28
43147;BME280;28752;48.266;7.402;2024-03-25T16:30:00;97791.44;;;14.89;37.69
43147;BME280;28752;48.266;7.402;2024-03-25T16:32:34;97775.47;;;14.89;39.06
43147;BME280;28752;48.266;7.402;2024-03-25T16:35:01;97786.31;;;14.94;38.87
43147;BME280;28752;48.266;7.402;2024-03-25T16:37:26;97775.66;;;14.87;39.32
43147;BME280;28752;48.266;7.402;2024-03-25T16:39:52;97774.28;;;14.78;41.74
43147;BME280;28752;48.266;7.402;2024-03-25T16:42:17;97761.88;;;14.65;43.46
43147;BME280;28752;48.266;7.402;2024-03-25T16:44:42;97762.75;;;14.46;43.23
43147;BME280;28752;48.266;7.402;2024-03-25T16:47:08;97764.22;;;14.28;43.65
43147;BME280;28752;48.266;7.402;2024-03-25T16:49:35;97756.50;;;14.20;44.45
43147;BME280;28752;48.266;7.402;2024-03-25T16:52:00;97746.47;;;14.09;45.40
43147;BME280;28752;48.266;7.402;2024-03-25T16:54:25;97757.00;;;13.83;45.63
43147;BME280;28752;48.266;7.402;2024-03-25T16:56:51;97743.69;;;13.83;45.56
43147;BME280;28752;48.266;7.402;2024-03-25T16:59:16;97747.41;;;13.69;46.34
43147;BME280;28752;48.266;7.402;2024-03-25T17:01:42;97753.56;;;13.56;46.81
43147;BME280;28752;48.266;7.402;2024-03-25T17:04:07;97752.53;;;13.50;47.21
43147;BME280;28752;48.266;7.402;2024-03-25T17:06:32;97746.19;;;13.45;47.38
43147;BME280;28752;48.266;7.402;2024-03-25T17:08:58;97733.53;;;13.33;48.22
43147;BME280;28752;48.266;7.402;2024-03-25T17:11:23;97742.31;;;13.34;47.19
43147;BME280;28752;48.266;7.402;2024-03-25T17:13:48;97739.44;;;13.29;46.81
43147;BME280;28752;48.266;7.402;2024-03-25T17:16:14;97736.13;;;13.27;47.10
43147;BME280;28752;48.266;7.402;2024-03-25T17:18:39;97735.53;;;13.05;47.28
43147;BME280;28752;48.266;7.402;2024-03-25T17:21:04;97737.34;;;12.97;47.68
43147;BME280;28752;48.266;7.402;2024-03-25T17:23:30;97726.91;;;12.76;48.43